Time;durP1;ratioP1;P1;durP2;ratioP2;P2;SDS_P1;SDS_P2;PMS_P1;PMS_P2;Temp;Humidity;BMP_temperature;BMP_pressure;BME280_temperature;BME280_humidity;BME280_pressure;Samples;Min_cycle;Max_cycle;Signal;HPM_P1;HPM_P2
2021/09/04 00:00:17;;;;;;;34.03;26.37;;;15.90;99.90;;;;;;5011913;28;20460;-48
2021/09/04 00:02:44;;;;;;;37.30;25.30;;;15.90;99.90;;;;;;5010514;28;20654;-49
2021/09/04 00:05:11;;;;;;;36.77;26.33;;;15.90;99.90;;;;;;5011913;28;20516;-51
2021/09/04 00:07:37;;;;;;;31.10;27.70;;;15.90;99.90;;;;;;5011876;28;20925;-50
2021/09/04 00:10:05;;;;;;;29.37;26.23;;;15.80;99.90;;;;;;5011893;28;20491;-50
2021/09/04 00:12:32;;;;;;;34.77;25.73;;;15.80;99.90;;;;;;5011576;28;20878;-50
2021/09/04 00:14:59;;;;;;;30.07;25.67;;;15.80;99.90;;;;;;5011590;28;20433;-49
2021/09/04 00:17:29;;;;;;;33.63;25.17;;;15.80;99.90;;;;;;5011514;28;20979;-50
2021/09/04 00:19:56;;;;;;;33.27;25.10;;;16.10;99.90;;;;;;5011704;28;20459;-49
2021/09/04 00:22:22;;;;;;;29.50;24.73;;;15.70;99.90;;;;;;5011729;28;20407;-50
2021/09/04 00:24:49;;;;;;;27.97;24.30;;;15.70;99.90;;;;;;5012566;28;21007;-50
2021/09/04 00:27:16;;;;;;;31.43;26.07;;;15.70;99.90;;;;;;5013445;28;20944;-49
2021/09/04 00:29:42;;;;;;;32.90;25.60;;;15.70;99.90;;;;;;5011956;28;20454;-51
2021/09/04 00:32:09;;;;;;;33.63;24.97;;;15.60;99.90;;;;;;5011664;28;20440;-52
2021/09/04 00:34:37;;;;;;;30.83;24.50;;;15.60;99.90;;;;;;5010977;28;20435;-51
2021/09/04 00:37:04;;;;;;;31.07;24.80;;;15.60;99.90;;;;;;5011334;28;20436;-51
2021/09/04 00:39:31;;;;;;;36.00;25.90;;;15.60;99.90;;;;;;5011189;28;20948;-50
2021/09/04 00:41:58;;;;;;;30.87;24.23;;;15.60;99.90;;;;;;5011676;28;20534;-52
2021/09/04 00:44:25;;;;;;;29.37;23.37;;;15.60;99.90;;;;;;5011497;28;20479;-52
2021/09/04 00:47:00;;;;;;;31.63;24.97;;;15.50;99.90;;;;;;5011328;28;20448;-51
2021/09/04 00:49:26;;;;;;;31.80;23.27;;;15.50;99.90;;;;;;5011197;28;20459;-54
2021/09/04 00:51:54;;;;;;;29.97;23.30;;;15.50;99.90;;;;;;5010616;28;20830;-51
2021/09/04 00:54:21;;;;;;;29.00;23.80;;;15.50;99.90;;;;;;5011578;28;20797;-51
2021/09/04 00:56:48;;;;;;;31.10;25.90;;;15.50;99.90;;;;;;5011581;28;20429;-51
2021/09/04 00:59:16;;;;;;;30.40;24.93;;;15.50;99.90;;;;;;5011158;28;20945;-51
2021/09/04 01:01:43;;;;;;;34.77;24.90;;;15.50;99.90;;;;;;5011444;28;20784;-51
2021/09/04 01:04:10;;;;;;;29.83;23.93;;;15.40;99.90;;;;;;5011039;28;20890;-51
2021/09/04 01:06:38;;;;;;;33.67;25.53;;;15.40;99.90;;;;;;5010329;28;20471;-51
2021/09/04 01:09:07;;;;;;;34.53;27.10;;;15.40;99.90;;;;;;5011122;28;20460;-52
2021/09/04 01:11:34;;;;;;;28.57;23.97;;;15.30;99.90;;;;;;5011417;28;20436;-51
2021/09/04 01:14:01;;;;;;;42.63;25.80;;;15.30;99.90;;;;;;5011263;28;20439;-51
2021/09/04 01:16:34;;;;;;;31.10;24.57;;;15.00;99.90;;;;;;5011486;28;20445;-51
2021/09/04 01:19:00;;;;;;;34.00;24.70;;;15.30;99.90;;;;;;5010593;28;20463;-52
2021/09/04 01:21:27;;;;;;;30.73;24.00;;;15.30;99.90;;;;;;5011469;28;20432;-52
2021/09/04 01:23:54;;;;;;;34.73;26.23;;;15.30;99.90;;;;;;5011244;28;20436;-51
2021/09/04 01:26:23;;;;;;;30.33;24.87;;;15.20;99.90;;;;;;5011187;28;20958;-51
2021/09/04 01:28:50;;;;;;;33.30;24.53;;;15.20;99.90;;;;;;5014201;28;20464;-50
2021/09/04 01:31:16;;;;;;;31.10;24.97;;;14.80;99.90;;;;;;5014808;28;20940;-50
2021/09/04 01:33:44;;;;;;;33.30;24.40;;;15.20;99.90;;;;;;5014522;28;20452;-51
2021/09/04 01:36:10;;;;;;;31.70;26.73;;;15.20;99.90;;;;;;5014848;28;20925;-51
2021/09/04 01:38:37;;;;;;;36.23;27.00;;;15.10;99.90;;;;;;5014160;28;20445;-51
2021/09/04 01:41:04;;;;;;;29.00;23.77;;;15.20;99.90;;;;;;5014506;28;20447;-51
2021/09/04 01:43:32;;;;;;;33.47;25.80;;;15.10;99.90;;;;;;5016157;28;20436;-51
2021/09/04 01:45:58;;;;;;;32.67;24.53;;;15.10;99.90;;;;;;5014026;28;20464;-50
2021/09/04 01:48:25;;;;;;;34.70;26.73;;;15.10;99.90;;;;;;5014141;28;20451;-50
2021/09/04 01:50:52;;;;;;;35.00;26.07;;;15.10;99.90;;;;;;5014391;28;20535;-51
2021/09/04 01:53:18;;;;;;;29.73;24.47;;;15.10;99.90;;;;;;5014577;28;20439;-50
2021/09/04 01:55:45;;;;;;;40.50;27.10;;;15.10;99.90;;;;;;5014299;28;20435;-51
2021/09/04 01:58:11;;;;;;;29.57;24.97;;;15.10;99.90;;;;;;5013908;28;20432;-51
2021/09/04 02:00:39;;;;;;;29.60;23.90;;;15.10;99.90;;;;;;5014170;28;20514;-50
2021/09/04 02:03:06;;;;;;;31.60;23.87;;;15.00;99.90;;;;;;5014182;28;20438;-51
2021/09/04 02:05:32;;;;;;;35.40;24.90;;;15.00;99.90;;;;;;5014002;28;20482;-51
2021/09/04 02:07:59;;;;;;;33.30;24.30;;;15.00;99.90;;;;;;5013474;28;20432;-51
2021/09/04 02:10:26;;;;;;;28.23;22.80;;;15.00;99.90;;;;;;5013735;28;20518;-51
2021/09/04 02:12:52;;;;;;;31.83;26.73;;;15.00;99.90;;;;;;5013815;28;20437;-51
2021/09/04 02:15:19;;;;;;;30.00;24.73;;;15.00;99.90;;;;;;5013605;28;20870;-51
2021/09/04 02:17:47;;;;;;;34.67;26.10;;;14.80;99.90;;;;;;5013645;28;20433;-50
2021/09/04 02:20:14;;;;;;;33.10;25.77;;;15.10;99.90;;;;;;5013947;28;20802;-50
2021/09/04 02:22:41;;;;;;;28.40;24.97;;;15.10;99.90;;;;;;5013883;28;20535;-51
2021/09/04 02:25:09;;;;;;;35.40;24.93;;;15.10;99.90;;;;;;5014013;28;20554;-51
2021/09/04 02:27:37;;;;;;;33.63;26.53;;;15.10;99.90;;;;;;5012394;28;20462;-50
2021/09/04 02:30:04;;;;;;;32.97;25.60;;;15.10;99.90;;;;;;5013468;28;20559;-51
2021/09/04 02:32:31;;;;;;;30.57;23.80;;;15.20;99.90;;;;;;5013053;28;20592;-50
2021/09/04 02:35:00;;;;;;;39.33;26.87;;;14.90;99.90;;;;;;5014188;28;20924;-50
2021/09/04 02:37:27;;;;;;;31.20;25.27;;;15.10;99.90;;;;;;5013365;28;20495;-51
2021/09/04 02:39:54;;;;;;;35.80;25.67;;;14.80;99.90;;;;;;5013163;28;20547;-50
2021/09/04 02:42:22;;;;;;;34.10;25.03;;;14.80;99.90;;;;;;5013727;28;20437;-51
2021/09/04 02:44:48;;;;;;;34.57;23.90;;;15.10;99.90;;;;;;5013563;28;20527;-51
2021/09/04 02:47:15;;;;;;;30.33;24.40;;;15.00;99.90;;;;;;5013455;28;20490;-50
2021/09/04 02:49:43;;;;;;;30.10;23.70;;;15.00;99.90;;;;;;5012870;28;20467;-50
2021/09/04 02:52:11;;;;;;;36.93;26.77;;;14.90;99.90;;;;;;5013612;28;20476;-50
2021/09/04 02:54:38;;;;;;;34.03;25.57;;;14.90;99.90;;;;;;5013554;28;21045;-50
2021/09/04 02:57:05;;;;;;;30.00;22.30;;;14.90;99.90;;;;;;5013475;28;20441;-50
2021/09/04 02:59:32;;;;;;;35.00;24.03;;;14.80;99.90;;;;;;5016616;28;20526;-50
2021/09/04 03:02:01;;;;;;;30.87;22.83;;;14.90;99.90;;;;;;5013266;28;20470;-50
2021/09/04 03:04:27;;;;;;;32.60;23.97;;;15.00;99.90;;;;;;5012986;28;20944;-50
2021/09/04 03:06:55;;;;;;;34.17;25.47;;;14.80;99.90;;;;;;5013136;28;20573;-50
2021/09/04 03:09:23;;;;;;;30.40;23.97;;;14.80;99.90;;;;;;5012422;28;20474;-50
2021/09/04 03:11:50;;;;;;;32.60;24.20;;;14.60;99.90;;;;;;5012901;28;20424;-51
2021/09/04 03:14:16;;;;;;;31.13;23.20;;;14.70;99.90;;;;;;5012849;28;20451;-50
2021/09/04 03:16:43;;;;;;;29.70;24.40;;;14.40;99.90;;;;;;5012866;28;20530;-50
2021/09/04 03:19:10;;;;;;;30.30;23.33;;;14.70;99.90;;;;;;5012633;28;20481;-50
2021/09/04 03:21:39;;;;;;;29.73;23.43;;;14.70;99.90;;;;;;5013134;28;20445;-50
2021/09/04 03:24:06;;;;;;;34.13;23.37;;;14.70;99.90;;;;;;5012709;28;20431;-50
2021/09/04 03:26:34;;;;;;;30.90;24.17;;;14.60;99.90;;;;;;5012616;28;20484;-51
2021/09/04 03:29:01;;;;;;;31.27;24.70;;;14.60;99.90;;;;;;5012270;28;20472;-51
2021/09/04 03:31:27;;;;;;;30.30;24.70;;;14.60;99.90;;;;;;5012481;28;20548;-51
2021/09/04 03:33:54;;;;;;;37.70;24.20;;;14.60;99.90;;;;;;5012539;28;20925;-51
2021/09/04 03:36:21;;;;;;;30.50;24.33;;;14.60;99.90;;;;;;5012657;28;20808;-51
2021/09/04 03:38:48;;;;;;;41.07;25.60;;;14.30;99.90;;;;;;5012199;28;20547;-51
2021/09/04 03:41:16;;;;;;;33.20;24.53;;;14.50;99.90;;;;;;5012533;28;20437;-51
2021/09/04 03:43:44;;;;;;;34.80;24.70;;;14.60;99.90;;;;;;5012358;28;20427;-51
2021/09/04 03:46:11;;;;;;;35.63;24.47;;;14.20;99.90;;;;;;5012770;28;20475;-51
2021/09/04 03:48:38;;;;;;;32.27;23.63;;;14.60;99.90;;;;;;5012092;28;20472;-51
2021/09/04 03:51:06;;;;;;;30.53;22.30;;;14.60;99.90;;;;;;5012014;28;20440;-51
2021/09/04 03:53:34;;;;;;;34.57;24.57;;;14.60;99.90;;;;;;5012402;28;20510;-51
2021/09/04 03:56:01;;;;;;;32.90;23.40;;;14.50;99.90;;;;;;5012294;28;20487;-51
2021/09/04 03:58:27;;;;;;;32.80;23.93;;;14.50;99.90;;;;;;5011811;28;20446;-51
2021/09/04 04:00:55;;;;;;;32.10;24.80;;;14.60;99.90;;;;;;5012375;28;20444;-51
2021/09/04 04:03:23;;;;;;;36.10;23.40;;;14.30;99.90;;;;;;5012377;28;20442;-51
2021/09/04 04:05:50;;;;;;;32.97;24.43;;;14.50;99.90;;;;;;5012092;28;20534;-51
2021/09/04 04:08:16;;;;;;;32.73;23.87;;;14.30;99.90;;;;;;5012115;28;20440;-51
2021/09/04 04:10:43;;;;;;;31.63;23.43;;;14.60;99.90;;;;;;5012098;28;20486;-51
2021/09/04 04:13:10;;;;;;;32.00;24.07;;;14.60;99.90;;;;;;5012000;28;20447;-51
2021/09/04 04:15:37;;;;;;;27.30;21.93;;;14.50;99.90;;;;;;5013771;28;20547;-52
2021/09/04 04:18:06;;;;;;;29.50;23.27;;;14.50;99.90;;;;;;5011877;28;20534;-51
2021/09/04 04:20:33;;;;;;;32.17;23.30;;;14.60;99.90;;;;;;5012002;28;20460;-51
2021/09/04 04:22:59;;;;;;;29.17;21.30;;;14.40;99.90;;;;;;5012146;28;20431;-51
2021/09/04 04:25:27;;;;;;;30.47;22.03;;;14.60;99.90;;;;;;5012191;28;20526;-51
2021/09/04 04:27:54;;;;;;;33.97;22.73;;;14.60;99.90;;;;;;5011692;28;20443;-51
2021/09/04 04:30:21;;;;;;;28.87;23.03;;;14.60;99.90;;;;;;5011936;28;20471;-51
2021/09/04 04:32:48;;;;;;;35.07;24.60;;;14.80;99.90;;;;;;5011844;28;20428;-51
2021/09/04 04:35:16;;;;;;;30.47;23.17;;;15.10;99.90;;;;;;5010466;28;20541;-51
2021/09/04 04:37:43;;;;;;;34.57;25.10;;;14.70;99.90;;;;;;5011400;28;20502;-50
2021/09/04 04:40:13;;;;;;;36.63;24.87;;;14.70;99.90;;;;;;5011607;28;20455;-51
2021/09/04 04:42:41;;;;;;;34.77;25.10;;;14.70;99.90;;;;;;5011990;28;20538;-51
2021/09/04 04:45:08;;;;;;;33.13;24.97;;;14.70;99.90;;;;;;5011861;28;20451;-51
2021/09/04 04:47:35;;;;;;;36.90;25.50;;;14.70;99.90;;;;;;5011759;28;20459;-50
2021/09/04 04:50:02;;;;;;;35.17;26.30;;;14.30;99.90;;;;;;5011459;28;20456;-51
2021/09/04 04:52:31;;;;;;;34.87;25.73;;;15.00;99.90;;;;;;5011700;28;20806;-51
2021/09/04 04:54:58;;;;;;;32.23;25.00;;;14.90;99.90;;;;;;5011904;28;20441;-52
2021/09/04 04:57:26;;;;;;;33.20;25.20;;;14.80;99.90;;;;;;5011557;28;20849;-51
2021/09/04 04:59:53;;;;;;;30.90;24.10;;;14.80;99.90;;;;;;5011285;28;20463;-51
2021/09/04 05:02:20;;;;;;;32.80;25.93;;;14.80;99.90;;;;;;5013219;28;20439;-50
2021/09/04 05:04:47;;;;;;;32.10;23.60;;;14.90;99.90;;;;;;5015524;28;20876;-51
2021/09/04 05:07:14;;;;;;;32.53;22.30;;;15.00;99.90;;;;;;5015224;28;20487;-49
2021/09/04 05:09:42;;;;;;;32.60;24.77;;;14.80;99.90;;;;;;5014787;28;20452;-50
2021/09/04 05:12:09;;;;;;;29.87;22.60;;;15.10;99.90;;;;;;5015242;28;20450;-50
2021/09/04 05:14:36;;;;;;;29.20;22.90;;;14.90;99.90;;;;;;5015115;28;20440;-50
2021/09/04 05:17:03;;;;;;;34.13;23.60;;;14.90;99.90;;;;;;5015244;28;20737;-50
2021/09/04 05:19:31;;;;;;;31.07;23.70;;;15.10;99.90;;;;;;5014648;28;20464;-50
2021/09/04 05:21:58;;;;;;;26.00;22.27;;;15.00;99.90;;;;;;5015135;28;20453;-51
2021/09/04 05:24:26;;;;;;;25.70;20.63;;;14.90;99.90;;;;;;5015092;28;20432;-51
2021/09/04 05:26:55;;;;;;;24.87;20.50;;;15.40;99.90;;;;;;5014965;28;20887;-50
2021/09/04 05:29:22;;;;;;;30.90;22.17;;;15.00;99.90;;;;;;5015032;28;20486;-51
2021/09/04 05:31:49;;;;;;;28.33;22.13;;;14.90;99.90;;;;;;5017131;28;20456;-51
2021/09/04 05:34:16;;;;;;;27.33;21.37;;;15.00;99.90;;;;;;5014655;28;20439;-50
2021/09/04 05:36:42;;;;;;;30.43;20.90;;;15.00;99.90;;;;;;5014824;28;20774;-50
2021/09/04 05:39:09;;;;;;;28.77;20.70;;;14.90;99.90;;;;;;5012944;28;20472;-51
2021/09/04 05:41:36;;;;;;;30.93;21.93;;;15.00;99.90;;;;;;5014773;28;20439;-51
2021/09/04 05:44:04;;;;;;;32.07;19.80;;;15.00;99.90;;;;;;5014662;28;20463;-51
2021/09/04 05:46:31;;;;;;;26.40;20.30;;;15.10;99.90;;;;;;5014540;28;20995;-52
2021/09/04 05:48:57;;;;;;;25.17;19.23;;;15.00;99.90;;;;;;5014476;28;20423;-51
2021/09/04 05:51:24;;;;;;;28.43;19.80;;;15.00;99.90;;;;;;5014511;28;20450;-51
2021/09/04 05:53:51;;;;;;;26.93;19.80;;;15.00;99.90;;;;;;5014427;28;20944;-51
2021/09/04 05:56:17;;;;;;;24.70;19.20;;;15.10;99.90;;;;;;5014397;28;20447;-51
2021/09/04 05:58:44;;;;;;;25.83;20.13;;;15.10;99.90;;;;;;5013978;28;20937;-51
2021/09/04 06:01:12;;;;;;;24.03;18.13;;;15.10;99.90;;;;;;5014486;28;20433;-51
2021/09/04 06:03:38;;;;;;;25.07;19.80;;;14.90;99.90;;;;;;5014212;28;20452;-51
2021/09/04 06:06:05;;;;;;;22.07;19.00;;;15.20;99.90;;;;;;5014040;28;20457;-51
2021/09/04 06:08:33;;;;;;;22.50;18.07;;;15.20;99.90;;;;;;5013733;28;20436;-51
2021/09/04 06:10:59;;;;;;;32.30;20.53;;;15.30;99.90;;;;;;5014054;28;20445;-51
2021/09/04 06:13:26;;;;;;;23.63;18.10;;;15.30;99.90;;;;;;5013727;28;20536;-51
2021/09/04 06:15:53;;;;;;;23.13;18.50;;;15.30;99.90;;;;;;5014006;28;20429;-51
2021/09/04 06:18:20;;;;;;;21.47;17.33;;;15.30;99.90;;;;;;5013388;28;20436;-50
2021/09/04 06:20:47;;;;;;;23.57;17.63;;;15.40;99.90;;;;;;5013565;28;20846;-51
2021/09/04 06:23:14;;;;;;;24.63;18.37;;;15.50;99.90;;;;;;5013650;28;20527;-51
2021/09/04 06:25:40;;;;;;;25.40;17.97;;;15.40;99.90;;;;;;5013461;28;20476;-51
2021/09/04 06:28:07;;;;;;;21.60;18.00;;;15.40;99.90;;;;;;5013517;28;20631;-51
2021/09/04 06:30:33;;;;;;;22.43;17.90;;;15.40;99.90;;;;;;5013715;28;20471;-50
2021/09/04 06:33:00;;;;;;;23.10;18.90;;;15.50;99.90;;;;;;5013618;28;20445;-49
2021/09/04 06:35:28;;;;;;;21.90;18.87;;;15.50;99.90;;;;;;5012025;28;20448;-51
2021/09/04 06:37:54;;;;;;;19.63;16.60;;;15.50;99.90;;;;;;5013272;28;20432;-50
2021/09/04 06:40:21;;;;;;;23.70;18.33;;;15.60;99.90;;;;;;5013538;28;21125;-49
2021/09/04 06:42:48;;;;;;;23.13;17.67;;;15.60;99.90;;;;;;5013286;28;20800;-50
2021/09/04 06:45:15;;;;;;;24.03;18.50;;;15.60;99.90;;;;;;5014210;28;20441;-50
2021/09/04 06:47:42;;;;;;;22.20;17.73;;;15.70;99.90;;;;;;5013528;28;20492;-51
2021/09/04 06:50:09;;;;;;;21.40;17.80;;;15.70;99.90;;;;;;5015013;28;20456;-50
2021/09/04 06:52:37;;;;;;;24.13;18.20;;;15.60;99.90;;;;;;5013023;28;20438;-49
2021/09/04 06:55:05;;;;;;;24.13;18.93;;;15.70;99.90;;;;;;5012981;28;20403;-49
2021/09/04 06:57:32;;;;;;;21.33;17.30;;;15.70;99.90;;;;;;5013056;28;20441;-50
2021/09/04 06:59:59;;;;;;;22.80;18.70;;;15.80;99.90;;;;;;5012960;28;20966;-49
2021/09/04 07:02:25;;;;;;;24.07;16.33;;;15.80;99.90;;;;;;5012953;28;20440;-50
2021/09/04 07:04:52;;;;;;;23.87;18.60;;;15.80;99.90;;;;;;5012813;28;20437;-51
2021/09/04 07:07:18;;;;;;;21.10;17.47;;;15.90;99.90;;;;;;5012754;28;20465;-51
2021/09/04 07:09:46;;;;;;;20.83;17.70;;;15.90;99.90;;;;;;5011585;28;20435;-50
2021/09/04 07:12:13;;;;;;;21.73;17.03;;;15.90;99.90;;;;;;5012994;28;20407;-50
2021/09/04 07:14:39;;;;;;;21.30;17.77;;;16.00;99.90;;;;;;5011346;28;20448;-50
2021/09/04 07:17:06;;;;;;;22.63;17.13;;;16.00;99.90;;;;;;5012609;28;20431;-51
2021/09/04 07:19:33;;;;;;;21.00;16.83;;;16.00;99.90;;;;;;5012341;28;20457;-50
2021/09/04 07:21:59;;;;;;;20.37;15.77;;;16.10;99.90;;;;;;5011384;28;20567;-50
2021/09/04 07:24:26;;;;;;;18.40;15.40;;;16.10;99.90;;;;;;5011855;28;20433;-50
2021/09/04 07:26:54;;;;;;;22.63;18.10;;;16.20;99.90;;;;;;5011875;28;20476;-50
2021/09/04 07:29:21;;;;;;;19.00;14.87;;;16.30;99.90;;;;;;5011915;28;20523;-50
2021/09/04 07:31:47;;;;;;;20.40;16.47;;;16.30;99.90;;;;;;5012470;28;20793;-50
2021/09/04 07:34:14;;;;;;;20.13;16.33;;;16.40;99.90;;;;;;5012200;28;20784;-51
2021/09/04 07:36:40;;;;;;;17.67;14.83;;;16.40;99.90;;;;;;5012297;28;20438;-51
2021/09/04 07:39:07;;;;;;;19.30;16.73;;;16.40;99.90;;;;;;5011833;28;20464;-50
2021/09/04 07:41:34;;;;;;;18.30;15.47;;;16.40;99.90;;;;;;5012105;28;20429;-49
2021/09/04 07:44:02;;;;;;;20.10;16.27;;;16.50;99.90;;;;;;5011975;28;20445;-49
2021/09/04 07:46:28;;;;;;;28.03;17.33;;;16.50;99.90;;;;;;5012270;28;20472;-50
2021/09/04 07:48:55;;;;;;;21.00;17.33;;;16.50;99.90;;;;;;5011516;28;20462;-51
2021/09/04 07:51:21;;;;;;;19.40;16.07;;;16.50;99.90;;;;;;5012279;28;20441;-50
2021/09/04 07:53:48;;;;;;;20.77;17.43;;;16.50;99.90;;;;;;5012065;28;20442;-50
2021/09/04 07:56:15;;;;;;;23.33;16.90;;;16.40;99.90;;;;;;5010487;28;20444;-49
2021/09/04 07:58:41;;;;;;;21.23;16.40;;;16.50;99.90;;;;;;5011586;28;20443;-51
2021/09/04 08:01:09;;;;;;;24.33;17.97;;;16.50;99.90;;;;;;5012225;28;20439;-50
2021/09/04 08:03:36;;;;;;;20.57;15.90;;;16.50;99.90;;;;;;5011978;28;20429;-49
2021/09/04 08:06:02;;;;;;;20.77;16.57;;;16.50;99.90;;;;;;5013147;28;20456;-50
2021/09/04 08:08:29;;;;;;;21.27;16.50;;;16.60;99.90;;;;;;5011247;28;20433;-50
2021/09/04 08:10:57;;;;;;;19.13;15.43;;;16.70;99.90;;;;;;5011809;28;20441;-51
2021/09/04 08:13:24;;;;;;;19.20;17.17;;;16.80;99.90;;;;;;5011670;28;20938;-51
2021/09/04 08:15:51;;;;;;;17.90;16.00;;;16.90;99.90;;;;;;5011563;28;20442;-49
2021/09/04 08:18:19;;;;;;;19.77;16.80;;;17.00;99.90;;;;;;5011234;28;20491;-51
2021/09/04 08:20:46;;;;;;;22.70;18.20;;;17.10;99.90;;;;;;5011422;28;20452;-51
2021/09/04 08:23:12;;;;;;;21.80;17.13;;;17.10;99.90;;;;;;5011417;28;21303;-50
2021/09/04 08:25:39;;;;;;;18.57;14.97;;;17.20;99.90;;;;;;5011316;28;20438;-50
2021/09/04 08:28:07;;;;;;;18.20;15.50;;;17.20;99.90;;;;;;5010829;28;21031;-50
2021/09/04 08:30:34;;;;;;;19.30;16.33;;;17.30;99.90;;;;;;5011178;28;20480;-50
2021/09/04 08:33:01;;;;;;;20.30;15.20;;;17.40;99.90;;;;;;5011173;28;20442;-50
2021/09/04 08:35:29;;;;;;;17.13;15.13;;;17.50;99.90;;;;;;5011455;28;20435;-50
2021/09/04 08:37:56;;;;;;;18.07;14.10;;;17.60;99.90;;;;;;5014797;28;20784;-50
2021/09/04 08:40:24;;;;;;;20.20;15.27;;;17.70;99.90;;;;;;5015413;28;20454;-50
2021/09/04 08:42:51;;;;;;;16.70;14.50;;;17.80;99.90;;;;;;5015357;28;20441;-51
2021/09/04 08:45:18;;;;;;;20.00;15.00;;;17.90;99.90;;;;;;5015469;28;20445;-50
2021/09/04 08:47:46;;;;;;;21.40;15.70;;;18.00;99.90;;;;;;5014915;28;20457;-50
2021/09/04 08:50:13;;;;;;;19.87;14.10;;;18.00;99.90;;;;;;5015049;28;20970;-51
2021/09/04 08:52:41;;;;;;;18.17;15.37;;;18.10;99.90;;;;;;5015142;28;20435;-50
2021/09/04 08:55:09;;;;;;;18.10;13.70;;;18.20;99.90;;;;;;5015074;28;20441;-50
2021/09/04 08:57:35;;;;;;;19.03;15.07;;;18.20;99.90;;;;;;5014817;28;20426;-50
2021/09/04 09:00:02;;;;;;;21.63;15.00;;;18.30;99.90;;;;;;5014699;28;20453;-50
2021/09/04 09:02:30;;;;;;;18.57;14.90;;;18.40;99.90;;;;;;5014357;28;20450;-51
2021/09/04 09:05:02;;;;;;;21.30;14.70;;;18.40;99.90;;;;;;5014729;28;20525;-50
2021/09/04 09:07:41;;;;;;;19.20;14.73;;;18.20;99.90;;;;;;5014894;28;20481;-49
2021/09/04 09:10:29;;;;;;;23.03;14.47;;;18.40;99.90;;;;;;5015160;28;20455;-49
2021/09/04 09:12:56;;;;;;;19.17;13.57;;;18.40;99.90;;;;;;5015415;28;20439;-49
2021/09/04 09:15:24;;;;;;;21.50;15.00;;;18.60;99.90;;;;;;5014528;28;20436;-49
2021/09/04 09:17:58;;;;;;;16.77;12.80;;;18.60;99.90;;;;;;5013796;28;20424;-49
2021/09/04 09:20:26;;;;;;;20.67;14.83;;;18.70;99.90;;;;;;5014189;28;20996;-49
2021/09/04 09:22:54;;;;;;;21.20;14.73;;;18.70;99.90;;;;;;5016084;28;20551;-49
2021/09/04 09:25:21;;;;;;;17.07;14.40;;;18.80;99.90;;;;;;5015279;28;20567;-51
2021/09/04 09:27:58;;;;;;;17.60;13.87;;;18.80;99.90;;;;;;5014190;28;20483;-51
2021/09/04 09:30:34;;;;;;;17.83;13.37;;;18.80;99.90;;;;;;5012021;28;20475;-50
2021/09/04 09:33:01;;;;;;;21.47;14.03;;;18.80;99.90;;;;;;5013852;28;20442;-50
2021/09/04 09:35:33;;;;;;;21.87;13.57;;;18.90;99.90;;;;;;5014653;28;20447;-51
2021/09/04 09:38:02;;;;;;;18.90;14.50;;;18.90;99.90;;;;;;5013640;28;20923;-50
2021/09/04 09:40:29;;;;;;;17.90;13.63;;;19.00;99.90;;;;;;5014034;28;20451;-51
2021/09/04 09:42:55;;;;;;;23.53;13.93;;;19.00;99.90;;;;;;5013806;28;20447;-51
2021/09/04 09:45:39;;;;;;;21.13;15.47;;;18.90;99.90;;;;;;5012907;28;20446;-50
2021/09/04 09:48:05;;;;;;;18.37;13.00;;;19.10;99.90;;;;;;5012482;28;20510;-50
2021/09/04 09:50:34;;;;;;;18.10;15.33;;;19.00;99.90;;;;;;5013555;28;20447;-51
2021/09/04 09:53:04;;;;;;;19.07;14.10;;;19.00;99.90;;;;;;5014169;28;20446;-50
2021/09/04 09:55:31;;;;;;;21.77;14.53;;;19.00;99.90;;;;;;5013910;28;20444;-50
2021/09/04 09:57:58;;;;;;;20.27;14.80;;;19.00;99.90;;;;;;5013474;28;20455;-50
2021/09/04 10:00:26;;;;;;;22.07;14.50;;;19.20;99.90;;;;;;5013359;28;20472;-49
2021/09/04 10:02:57;;;;;;;23.57;16.30;;;19.10;99.90;;;;;;5013639;28;20443;-50
2021/09/04 10:05:26;;;;;;;19.33;14.70;;;19.10;99.90;;;;;;5014159;28;20445;-49
2021/09/04 10:07:53;;;;;;;18.70;14.33;;;19.10;99.90;;;;;;5013357;28;20993;-50
2021/09/04 10:10:22;;;;;;;20.43;16.13;;;19.20;99.90;;;;;;5013359;28;20465;-50
2021/09/04 10:12:50;;;;;;;23.63;15.17;;;19.10;99.90;;;;;;5013426;28;20904;-49
2021/09/04 10:15:17;;;;;;;20.90;15.40;;;19.10;99.90;;;;;;5013457;28;20540;-51
2021/09/04 10:17:46;;;;;;;21.00;15.80;;;19.10;99.90;;;;;;5013103;28;20446;-50
2021/09/04 10:20:15;;;;;;;20.97;13.63;;;19.30;99.90;;;;;;5013464;28;20471;-50
2021/09/04 10:22:43;;;;;;;20.03;14.63;;;19.10;99.90;;;;;;5013290;28;20440;-50
2021/09/04 10:25:15;;;;;;;23.50;14.73;;;19.10;99.90;;;;;;5013625;28;20447;-50
2021/09/04 10:27:47;;;;;;;19.27;14.87;;;19.10;99.90;;;;;;5011750;28;20508;-51
2021/09/04 10:30:29;;;;;;;25.73;15.67;;;19.10;99.90;;;;;;5013549;28;20471;-50
2021/09/04 10:32:58;;;;;;;19.90;13.80;;;19.20;99.90;;;;;;5013264;28;20444;-50
2021/09/04 10:35:39;;;;;;;22.20;15.10;;;19.10;99.90;;;;;;5013439;28;20439;-50
2021/09/04 10:38:10;;;;;;;19.90;14.87;;;19.20;99.90;;;;;;5014032;28;20530;-51
2021/09/04 10:40:38;;;;;;;18.40;13.60;;;19.20;99.90;;;;;;5015181;28;20467;-50
2021/09/04 10:43:09;;;;;;;24.00;15.50;;;19.20;99.90;;;;;;5013012;28;20474;-50
2021/09/04 10:45:37;;;;;;;18.53;14.90;;;19.30;99.90;;;;;;5012834;28;20436;-51
2021/09/04 10:48:14;;;;;;;28.23;15.20;;;19.30;99.90;;;;;;5012534;28;20824;-50
2021/09/04 10:50:41;;;;;;;19.30;15.00;;;19.30;99.90;;;;;;5012935;28;20916;-50
2021/09/04 10:53:08;;;;;;;21.40;17.10;;;19.20;99.90;;;;;;5013135;28;20444;-49
2021/09/04 10:55:37;;;;;;;22.90;16.13;;;19.20;99.90;;;;;;5012568;28;20527;-50
2021/09/04 10:58:09;;;;;;;20.30;15.60;;;19.20;99.90;;;;;;5012472;28;20757;-51
2021/09/04 11:00:39;;;;;;;24.07;15.53;;;19.30;99.90;;;;;;5011462;28;20455;-50
2021/09/04 11:03:07;;;;;;;24.10;15.90;;;19.30;99.90;;;;;;5012581;28;20573;-49
2021/09/04 11:05:50;;;;;;;22.03;15.83;;;19.40;99.90;;;;;;5012070;28;20823;-51
2021/09/04 11:08:43;;;;;;;18.33;15.30;;;19.50;99.90;;;;;;5011898;28;20534;-50
2021/09/04 11:11:30;;;;;;;21.00;16.30;;;19.60;99.90;;;;;;5012491;28;20937;-51
2021/09/04 11:13:59;;;;;;;20.30;15.60;;;19.80;99.90;;;;;;5012416;28;20432;-50
2021/09/04 11:16:47;;;;;;;24.37;15.83;;;19.80;99.90;;;;;;5012319;28;20455;-50
2021/09/04 11:19:15;;;;;;;19.73;16.00;;;20.00;99.90;;;;;;5003451;28;20686;-50
2021/09/04 11:22:04;;;;;;;23.40;15.87;;;20.10;99.90;;;;;;5012002;28;20434;-50
2021/09/04 11:24:33;;;;;;;23.93;15.93;;;20.20;99.90;;;;;;5012361;28;20523;-51
2021/09/04 11:27:03;;;;;;;18.60;16.07;;;20.20;99.90;;;;;;5012086;28;20799;-52
2021/09/04 11:29:36;;;;;;;18.93;16.67;;;20.20;99.90;;;;;;5011692;28;20476;-50
2021/09/04 11:32:04;;;;;;;17.87;15.10;;;20.20;99.90;;;;;;5012011;28;20428;-50
2021/09/04 11:34:56;;;;;;;19.93;14.73;;;20.20;99.90;;;;;;5011784;28;20780;-51
2021/09/04 11:37:29;;;;;;;20.53;14.67;;;20.30;99.90;;;;;;4997577;28;20450;-51
2021/09/04 11:40:00;;;;;;;23.10;15.57;;;20.30;99.90;;;;;;5011669;28;20458;-50
2021/09/04 11:42:28;;;;;;;20.20;14.87;;;20.30;99.90;;;;;;5012088;28;20434;-51
2021/09/04 11:44:58;;;;;;;19.70;16.53;;;20.40;99.90;;;;;;5011541;28;20529;-50
2021/09/04 11:47:26;;;;;;;20.80;16.50;;;20.50;99.90;;;;;;5011269;28;20482;-51
2021/09/04 11:49:54;;;;;;;19.90;15.50;;;20.50;99.90;;;;;;5011207;28;20456;-51
2021/09/04 11:52:28;;;;;;;22.30;16.50;;;20.50;99.90;;;;;;5011411;28;20437;-52
2021/09/04 11:55:13;;;;;;;19.67;16.87;;;20.60;99.90;;;;;;5012475;28;20437;-52
2021/09/04 11:57:41;;;;;;;21.10;15.07;;;20.50;99.90;;;;;;5012198;28;20518;-52
2021/09/04 12:00:15;;;;;;;18.50;14.43;;;20.80;99.90;;;;;;5011183;28;20459;-50
2021/09/04 12:02:46;;;;;;;22.93;14.57;;;20.90;99.90;;;;;;5010955;28;20814;-50
2021/09/04 12:05:14;;;;;;;19.50;13.70;;;21.00;99.90;;;;;;5011374;28;20447;-51
2021/09/04 12:07:41;;;;;;;18.50;13.47;;;21.10;99.90;;;;;;5011419;28;20545;-51
2021/09/04 12:10:10;;;;;;;27.57;15.10;;;21.20;99.90;;;;;;5010864;28;20474;-50
2021/09/04 12:12:38;;;;;;;17.13;13.67;;;21.20;99.90;;;;;;5011096;28;20837;-49
2021/09/04 12:15:07;;;;;;;19.60;13.50;;;21.30;99.90;;;;;;5011372;28;20446;-51
2021/09/04 12:17:34;;;;;;;19.20;14.43;;;21.30;99.90;;;;;;5011153;28;20435;-51
2021/09/04 12:20:10;;;;;;;21.07;15.70;;;21.30;99.90;;;;;;5010533;28;20840;-51
2021/09/04 12:22:37;;;;;;;19.10;15.10;;;21.30;99.90;;;;;;5010952;28;20454;-50
2021/09/04 12:25:04;;;;;;;21.23;14.87;;;21.40;99.90;;;;;;5011118;28;20432;-51
2021/09/04 12:27:38;;;;;;;17.97;14.07;;;21.50;99.90;;;;;;5010971;28;20530;-51
2021/09/04 12:30:06;;;;;;;18.33;13.63;;;21.60;99.90;;;;;;5033936;23;20502;-52
2021/09/04 12:32:36;;;;;;;21.80;14.43;;;21.60;99.90;;;;;;5010766;28;20538;-52